createdAt,value
2023-03-08T00:00:18.243Z,99326.44
2023-03-08T00:05:21.706Z,99331.66
2023-03-08T00:10:24.079Z,99338.56
2023-03-08T00:15:25.850Z,99347.25
2023-03-08T00:20:29.506Z,99349.78
2023-03-08T00:25:31.639Z,99354.03
2023-03-08T00:30:33.761Z,99359.22
2023-03-08T00:35:36.863Z,99362.63
2023-03-08T00:40:38.705Z,99362.53
2023-03-08T00:45:40.728Z,99369.41
2023-03-08T00:50:44.198Z,99366.78
2023-03-08T00:55:50.929Z,99369.31
2023-03-08T01:00:53.562Z,99364.00
2023-03-08T01:05:57.956Z,99380.50
2023-03-08T01:11:00.768Z,99388.25
2023-03-08T01:16:03.112Z,99391.72
2023-03-08T01:21:06.506Z,99397.69
2023-03-08T01:26:11.643Z,99402.06
2023-03-08T01:31:16.697Z,99401.19
2023-03-08T01:36:22.343Z,99398.47
2023-03-08T01:41:26.952Z,99396.63
2023-03-08T01:46:30.268Z,99397.47
2023-03-08T01:51:40.111Z,99405.41
2023-03-08T01:56:44.380Z,99401.84
2023-03-08T02:01:46.908Z,99398.31
2023-03-08T02:06:50.410Z,99404.38
2023-03-08T02:11:52.949Z,99393.97
2023-03-08T02:16:55.476Z,99397.47
2023-03-08T02:21:59.053Z,99406.97
2023-03-08T02:27:07.526Z,99402.53
2023-03-08T02:32:10.197Z,99412.84
2023-03-08T02:37:12.300Z,99413.66
2023-03-08T02:42:15.810Z,99415.25
2023-03-08T02:47:18.357Z,99416.19
2023-03-08T02:52:20.915Z,99413.59
2023-03-08T02:57:24.389Z,99414.41
2023-03-08T03:02:26.703Z,99422.91
2023-03-08T03:07:28.852Z,99417.78
2023-03-08T03:12:32.149Z,99426.47
2023-03-08T03:17:34.780Z,99428.22
2023-03-08T03:22:37.157Z,99424.75
2023-03-08T03:27:40.824Z,99430.09
2023-03-08T03:32:43.450Z,99444.09
2023-03-08T03:37:45.617Z,99441.56
2023-03-08T03:42:50.341Z,99455.63
2023-03-08T03:47:52.272Z,99447.06
2023-03-08T03:52:54.378Z,99457.41
2023-03-08T03:57:57.820Z,99462.63
2023-03-08T04:03:00.423Z,99449.31
2023-03-08T04:08:02.549Z,99451.75
2023-03-08T04:13:06.118Z,99453.25
2023-03-08T04:18:08.274Z,99457.44
2023-03-08T04:23:13.925Z,99445.16
2023-03-08T04:28:17.507Z,99457.16
2023-03-08T04:33:20.322Z,99463.06
2023-03-08T04:38:22.284Z,99449.78
2023-03-08T04:43:25.896Z,99449.59
2023-03-08T04:48:28.539Z,99454.72
2023-03-08T04:53:31.862Z,99440.50
2023-03-08T04:58:36.382Z,99449.09
2023-03-08T05:03:39.041Z,99442.09
2023-03-08T05:08:41.832Z,99449.72
2023-03-08T05:13:45.520Z,99452.72
2023-03-08T05:18:47.791Z,99466.53
2023-03-08T05:23:50.011Z,99468.78
2023-03-08T05:28:53.453Z,99463.38
2023-03-08T05:33:55.525Z,99480.84
2023-03-08T05:39:00.383Z,99483.72
2023-03-08T05:44:03.603Z,99480.25
2023-03-08T05:49:06.116Z,99477.78
2023-03-08T05:54:07.997Z,99482.94
2023-03-08T05:59:11.591Z,99475.00
2023-03-08T06:04:13.598Z,99482.09
2023-03-08T06:09:15.766Z,99471.94
2023-03-08T06:14:19.384Z,99477.47
2023-03-08T06:19:21.491Z,99476.84
2023-03-08T06:24:23.731Z,99487.50
2023-03-08T06:29:26.841Z,99490.28
2023-03-08T06:34:28.599Z,99488.78
2023-03-08T06:39:30.808Z,99496.00
2023-03-08T06:44:33.968Z,99501.41
2023-03-08T06:49:36.255Z,99492.28
2023-03-08T06:54:38.091Z,99484.63
2023-03-08T06:59:41.590Z,99487.56
2023-03-08T07:04:43.626Z,99468.97
2023-03-08T07:09:45.863Z,99477.00
2023-03-08T07:14:49.443Z,99470.16
2023-03-08T07:19:51.253Z,99470.34
2023-03-08T07:24:56.457Z,99463.56
2023-03-08T07:30:00.313Z,99488.91
2023-03-08T07:35:02.288Z,99502.09
2023-03-08T07:40:06.247Z,99503.94
2023-03-08T07:45:11.203Z,99482.41
2023-03-08T07:50:13.307Z,99493.00
2023-03-08T07:55:15.634Z,99493.94
2023-03-08T08:00:20.739Z,99490.56
2023-03-08T08:05:23.390Z,99487.16
2023-03-08T08:10:25.591Z,99495.94
2023-03-08T08:15:28.803Z,99479.47
2023-03-08T08:20:30.775Z,99493.56
2023-03-08T08:25:32.986Z,99484.00
2023-03-08T08:30:36.307Z,99490.16
2023-03-08T08:35:43.449Z,99475.38
2023-03-08T08:40:47.186Z,99460.56
2023-03-08T08:45:54.976Z,99459.69
2023-03-08T08:50:58.225Z,99460.59
2023-03-08T08:56:17.063Z,99459.72
2023-03-08T09:01:30.834Z,99451.84
2023-03-08T09:06:33.705Z,99445.72
2023-03-08T09:11:39.813Z,99450.09
2023-03-08T09:16:49.023Z,99446.50
2023-03-08T09:21:51.179Z,99442.97
2023-03-08T09:26:53.310Z,99440.41
2023-03-08T09:31:58.631Z,99437.53
2023-03-08T09:37:00.891Z,99434.56
2023-03-08T09:42:04.195Z,99434.47
2023-03-08T09:47:15.274Z,99417.50
2023-03-08T09:52:22.717Z,99415.78
2023-03-08T09:57:29.264Z,99405.59
2023-03-08T10:02:40.167Z,99392.78
2023-03-08T10:07:52.840Z,99393.91
2023-03-08T10:13:27.323Z,99380.41
2023-03-08T10:18:37.282Z,99383.25
2023-03-08T10:23:40.864Z,99389.06
2023-03-08T10:28:42.945Z,99373.34
2023-03-08T10:33:46.279Z,99372.38
2023-03-08T10:39:05.879Z,99375.78
2023-03-08T10:44:15.257Z,99368.69
2023-03-08T10:49:19.934Z,99354.31
2023-03-08T10:54:22.396Z,99345.22
2023-03-08T10:59:27.759Z,99334.97
2023-03-08T11:04:31.657Z,99336.38
2023-03-08T11:09:33.737Z,99334.97
2023-03-08T11:14:36.561Z,99324.13
2023-03-08T11:19:52.773Z,99314.25
2023-03-08T11:25:16.916Z,99297.72
2023-03-08T11:30:28.972Z,99294.81
2023-03-08T11:35:38.887Z,99281.38
2023-03-08T11:40:52.146Z,99276.19
2023-03-08T11:46:00.259Z,99271.59
2023-03-08T11:51:10.162Z,99259.91
2023-03-08T11:56:45.733Z,99264.22
2023-03-08T12:01:51.596Z,99244.47
2023-03-08T12:06:55.733Z,99239.81
2023-03-08T12:12:03.557Z,99238.34
2023-03-08T12:17:13.294Z,99231.34
2023-03-08T12:22:30.703Z,99226.94
2023-03-08T12:27:41.005Z,99222.38
2023-03-08T12:32:44.397Z,99220.75
2023-03-08T12:37:57.174Z,99219.22
2023-03-08T12:43:11.790Z,99216.75
2023-03-08T12:48:24.454Z,99211.50
2023-03-08T12:53:34.025Z,99214.16
2023-03-08T12:58:40.545Z,99219.22
2023-03-08T13:03:43.588Z,99205.44
2023-03-08T13:08:53.376Z,99213.50
2023-03-08T13:13:58.254Z,99208.22
2023-03-08T13:19:06.925Z,99221.28
2023-03-08T13:24:17.510Z,99215.84
2023-03-08T13:29:21.235Z,99224.28
2023-03-08T13:34:27.139Z,99220.19
2023-03-08T13:39:31.588Z,99217.81
2023-03-08T13:44:33.795Z,99218.59
2023-03-08T13:49:38.604Z,99208.16
2023-03-08T13:54:48.991Z,99209.00
2023-03-08T13:59:52.883Z,99207.31
2023-03-08T14:04:55.170Z,99203.88
2023-03-08T14:09:59.583Z,99203.13
2023-03-08T14:15:05.209Z,99197.06
2023-03-08T14:20:19.429Z,99204.06
2023-03-08T14:25:28.528Z,99191.84
2023-03-08T14:30:31.003Z,99181.41
2023-03-08T14:35:36.011Z,99168.38
2023-03-08T14:40:49.736Z,99170.97
2023-03-08T14:45:54.403Z,99171.84
2023-03-08T14:50:58.305Z,99171.84
2023-03-08T14:56:05.477Z,99176.09
2023-03-08T15:01:07.640Z,99175.22
2023-03-08T15:06:16.350Z,99177.91
2023-03-08T15:11:19.535Z,99171.81
2023-03-08T15:16:21.669Z,99166.56
2023-03-08T15:21:29.265Z,99157.06
2023-03-08T15:26:33.081Z,99139.63
2023-03-08T15:31:35.292Z,99137.06
2023-03-08T15:36:37.593Z,99135.31
2023-03-08T15:41:41.491Z,99122.25
2023-03-08T15:46:43.440Z,99132.72
2023-03-08T15:51:45.317Z,99125.78
2023-03-08T15:56:48.881Z,99115.34
2023-03-08T16:01:50.604Z,99113.56
2023-03-08T16:06:52.370Z,99123.19
2023-03-08T16:11:56.059Z,99106.63
2023-03-08T16:16:58.563Z,99100.53
2023-03-08T16:22:01.193Z,99111.88
2023-03-08T16:27:04.768Z,99101.41
2023-03-08T16:32:07.736Z,99099.69
2023-03-08T16:37:10.139Z,99094.44
2023-03-08T16:42:13.809Z,99106.63
2023-03-08T16:47:15.779Z,99103.16
2023-03-08T16:52:17.758Z,99089.22
2023-03-08T16:57:21.227Z,99094.41
2023-03-08T17:02:23.238Z,99090.94
2023-03-08T17:07:25.700Z,99098.78
2023-03-08T17:12:29.007Z,99087.44
2023-03-08T17:17:31.089Z,99079.63
2023-03-08T17:22:33.461Z,99087.44
2023-03-08T17:27:36.969Z,99093.53
2023-03-08T17:32:39.212Z,99089.19
2023-03-08T17:37:41.493Z,99082.22
2023-03-08T17:42:45.252Z,99077.88
2023-03-08T17:47:48.064Z,99081.38
2023-03-08T17:52:49.824Z,99085.72
2023-03-08T17:57:53.181Z,99075.25
2023-03-08T18:02:55.471Z,99072.66
2023-03-08T18:07:57.758Z,99080.47
2023-03-08T18:13:00.861Z,99082.19
2023-03-08T18:18:03.367Z,99093.53
2023-03-08T18:23:05.290Z,99107.44
2023-03-08T18:28:08.447Z,99120.47
2023-03-08T18:33:10.904Z,99110.94
2023-03-08T18:38:12.600Z,99110.06
2023-03-08T18:43:16.031Z,99104.81
2023-03-08T18:48:17.849Z,99094.38
2023-03-08T18:53:19.785Z,99090.91
2023-03-08T18:58:23.445Z,99090.91
2023-03-08T19:03:26.128Z,99087.44
2023-03-08T19:08:27.974Z,99081.34
2023-03-08T19:13:31.186Z,99071.78
2023-03-08T19:18:33.457Z,99065.63
2023-03-08T19:23:35.223Z,99066.53
2023-03-08T19:28:39.114Z,99064.75
2023-03-08T19:33:42.058Z,99068.25
2023-03-08T19:38:43.920Z,99065.66
2023-03-08T19:43:47.417Z,99050.00
2023-03-08T19:48:50.147Z,99071.72
2023-03-08T19:53:53.999Z,99063.06
2023-03-08T19:58:57.784Z,99050.84
2023-03-08T20:04:03.320Z,99062.16
2023-03-08T20:09:07.621Z,99056.09
2023-03-08T20:14:11.789Z,99057.84
2023-03-08T20:19:14.400Z,99054.34
2023-03-08T20:24:16.842Z,99052.63
2023-03-08T20:29:20.542Z,99061.28
2023-03-08T20:34:22.831Z,99054.34
2023-03-08T20:39:25.119Z,99055.22
2023-03-08T20:44:29.303Z,99049.16
2023-03-08T20:49:31.809Z,99060.44
2023-03-08T20:54:33.676Z,99057.84
2023-03-08T20:59:37.381Z,99063.06
2023-03-08T21:04:39.546Z,99054.34
2023-03-08T21:09:43.896Z,99050.88
2023-03-08T21:14:50.745Z,99044.78
2023-03-08T21:19:53.369Z,99048.28
2023-03-08T21:24:55.203Z,99036.09
2023-03-08T21:29:58.861Z,99050.88
2023-03-08T21:35:00.811Z,99045.66
2023-03-08T21:40:02.632Z,99048.25
2023-03-08T21:45:06.994Z,99057.84
2023-03-08T21:50:10.484Z,99052.63
2023-03-08T21:55:12.890Z,99048.28
2023-03-08T22:00:18.279Z,99038.69
2023-03-08T22:05:20.116Z,99038.69
2023-03-08T22:10:22.377Z,99043.06
2023-03-08T22:15:25.903Z,99039.59
2023-03-08T22:20:28.253Z,99029.13
2023-03-08T22:25:32.696Z,99022.19
2023-03-08T22:30:36.203Z,99035.25
2023-03-08T22:35:38.446Z,99028.28
2023-03-08T22:40:41.236Z,99028.25
2023-03-08T22:45:44.731Z,99023.94
2023-03-08T22:50:46.806Z,99010.00
2023-03-08T22:55:48.710Z,99016.97
2023-03-08T23:00:52.200Z,98991.72
2023-03-08T23:05:54.462Z,98998.69
2023-03-08T23:10:56.810Z,98991.75
2023-03-08T23:16:00.920Z,98977.84
2023-03-08T23:21:04.590Z,98975.22
2023-03-08T23:26:08.824Z,98975.19
2023-03-08T23:31:13.947Z,98956.09
2023-03-08T23:36:18.534Z,98938.69
2023-03-08T23:41:21.081Z,98939.53
2023-03-08T23:46:25.285Z,98956.97
2023-03-08T23:51:29.709Z,98965.66
2023-03-08T23:56:33.875Z,98960.44
